This is the latest recevied weather packets stored in our database for station/object KB3CAT. If no packets are shown the sender has not sent any weather packets the latest 10 day(s).
| Time | Temp. | Humidity | Pressure | Rain* | Wind** | Luminosity | Snow |
|---|---|---|---|---|---|---|---|
| 1777360997 | 10.56° C | 72% | 1021.5 hPa | 0 mm | - | - | - |
| 1777359197 | 10.56° C | 69% | 1021.5 hPa | 0 mm | - | - | - |
| 1777356797 | 11.11° C | 67% | 1021.8 hPa | 0 mm | - | - | - |
| 1777353797 | 12.22° C | 67% | 1021.6 hPa | 0 mm | - | - | - |
| 1777349597 | 11.67° C | 70% | 1022 hPa | 0 mm | - | - | - |
| 1777348397 | 11.67° C | 73% | 1021.7 hPa | 0 mm | - | - | - |
| 1777345397 | 13.33° C | 69% | 1022.1 hPa | 0 mm | - | - | - |
| 1777343597 | 14.44° C | 64% | 1022.3 hPa | 0 mm | - | - | - |
| 1777338797 | 15° C | 62% | 1022 hPa | 0 mm | - | - | - |
| 1777338197 | 13.89° C | 65% | 1021.9 hPa | 0 mm | - | - | - |
| 1777333397 | 18.33° C | 47% | 1021.7 hPa | 0 mm | - | - | - |
| 1777331597 | 20° C | 41% | 1021.4 hPa | 0 mm | - | - | - |
| 1777326797 | 20.56° C | 39% | 1021 hPa | 0 mm | - | - | - |
| 1777326197 | 20.56° C | 40% | 1021.2 hPa | 0 mm | - | - | - |
| 1777323797 | 20.56° C | 38% | 1021.4 hPa | 0 mm | - | - | - |
| 1777323197 | 20.56° C | 38% | 1021.6 hPa | 0 mm | - | - | - |
| 1777312997 | 21.11° C | 42% | 1022.6 hPa | 0 mm | - | - | - |
| 1777308198 | 20.56° C | 46% | 1023.6 hPa | 0 mm | - | - | - |
| 1777302219 | 16.67° C | 64% | 1024.3 hPa | 0 mm | - | - | - |
| 1777291997 | 10.56° C | 77% | 1023.9 hPa | 0 mm | - | - | - |
| 1777278196 | 3.33° C | 94% | 1021.9 hPa | 0 mm | - | - | - |
| 1777273416 | 3.89° C | 93% | 1022.3 hPa | 0 mm | - | - | - |
| 1777259598 | 6.67° C | 90% | 1021.3 hPa | 0 mm | - | - | - |
| 1777258397 | 6.67° C | 90% | 1021.4 hPa | 0 mm | - | - | - |
| 1777254198 | 7.78° C | 85% | 1021.1 hPa | 0 mm | - | - | - |
* Rain latest hour (hover to see other rain measurements)
** Current wind speed in m/s (hover to see current wind gust speed)